Aérodrome :
LOGIN :

S'inscrire | Disclaimer

   EN    FR    IT 

 










Légende :    VFR   VFR Marginal   IFR   IFR Intensif   IFR Très Intensif
Visi : 
Plafond : 
>= 8 km
>= 3000ft
5 à 8 km
1000 à 3000 ft
1500m à 5 km
500 à 1000 ft
800 à 1500m
200 à 500 ft
< 800m
< 200 ft
Symboles :   Orages  Brouillard  Fortes neiges  Fortes précipitations  Vent > 20 kt
SIGMETs :   Divers  Orages  Givrage  Turbulence  Onde Orograph.  Cendres Volcan.







- Altitude de l'aérodrome : 49 ft
- Code IATA : SEN
- Voir les cartes d'approche


EGMC - Southend

DERNIER METAR :
  • 231950Z 22016KT 9999 -RA OVC010 12/10 Q1013

METARs EXPIRÉS :
  • 231920Z 22016KT 9999 OVC013 12/09 Q1013
  • 231850Z 23015KT 9999 OVC013 12/09 Q1013
  • 231820Z 22016KT 9999 FEW012 BKN014 12/09 Q1013
  • 231750Z 21015KT 9999 BKN012 12/10 Q1013
  • 231720Z 21015KT 9999 BKN012 11/09 Q1013

TAF TAF EGMC
Valide du 23 à 18h jusqu'au 24 à 03h UTC


231701Z 2318/2403 20014KT 9999 SCT015
PROB30
TEMPO 2318/2322 8000 -RA BKN010
BECMG 2401/2403 20017G27KT
Pas de NOTAMs connus pour ce terrain.
1 SIGMET publié pour la FIR London (EGTT) :
 
Onde orographique forte
EGTT SIGMET 02 VALID 231900/232300 EGRR
EGTT LONDON FIR SEV MTW FCST WI N5443 E00205 - N5356 W00137 - N5500 W00216 - N5500 W00100 - N5500 E00153 - N5443 E00205 SFC/FL150 STNR WKN=



MET'MAP, la Météo Aéronautique d'un coup d'oeil ! - Copyright ORBIFLY Décembre 2007 - Disclaimer

ORBIFLY MET'MAP TEAM :

Programmation & Développement : Alexandra Zaïnal
Conception & Développement : Baudouin d'Aumeries
Co-Programmation & Développement : Marc-Olivier Méhu
Soutien technique & logistique : Manuel Goepfert

Contact : metmap@orbifly.com




SOURCES & CREDITS :

   NOAA